sensor_id;sensor_type;location;lat;lon;timestamp;P1;durP1;ratioP1;P2;durP2;ratioP2
63699;SDS011;49845;47.130;142.766;2023-11-21T00:01:04;11.30;;;2.33;;
63699;SDS011;49845;47.130;142.766;2023-11-21T00:03:36;13.88;;;2.38;;
63699;SDS011;49845;47.130;142.766;2023-11-21T00:06:08;10.60;;;2.00;;
63699;SDS011;49845;47.130;142.766;2023-11-21T00:08:38;8.45;;;1.67;;
63699;SDS011;49845;47.130;142.766;2023-11-21T00:11:09;8.80;;;2.03;;
63699;SDS011;49845;47.130;142.766;2023-11-21T00:13:39;11.32;;;1.95;;
63699;SDS011;49845;47.130;142.766;2023-11-21T00:16:11;10.45;;;2.28;;
63699;SDS011;49845;47.130;142.766;2023-11-21T00:18:42;8.48;;;2.03;;
63699;SDS011;49845;47.130;142.766;2023-11-21T00:21:14;11.27;;;2.75;;
63699;SDS011;49845;47.130;142.766;2023-11-21T00:23:44;8.02;;;2.20;;
63699;SDS011;49845;47.130;142.766;2023-11-21T00:26:15;8.13;;;2.38;;
63699;SDS011;49845;47.130;142.766;2023-11-21T00:28:45;17.88;;;2.60;;
63699;SDS011;49845;47.130;142.766;2023-11-21T00:31:17;8.50;;;2.25;;
63699;SDS011;49845;47.130;142.766;2023-11-21T00:33:48;8.75;;;2.20;;
63699;SDS011;49845;47.130;142.766;2023-11-21T00:36:18;8.73;;;2.10;;
63699;SDS011;49845;47.130;142.766;2023-11-21T00:38:48;8.88;;;2.00;;
63699;SDS011;49845;47.130;142.766;2023-11-21T00:41:19;12.20;;;2.22;;
63699;SDS011;49845;47.130;142.766;2023-11-21T00:43:49;7.78;;;1.90;;
63699;SDS011;49845;47.130;142.766;2023-11-21T00:46:21;9.95;;;2.25;;
63699;SDS011;49845;47.130;142.766;2023-11-21T00:48:54;16.00;;;2.70;;
63699;SDS011;49845;47.130;142.766;2023-11-21T00:51:25;14.00;;;2.47;;
63699;SDS011;49845;47.130;142.766;2023-11-21T00:53:55;13.35;;;2.28;;
63699;SDS011;49845;47.130;142.766;2023-11-21T00:56:26;12.23;;;2.05;;
63699;SDS011;49845;47.130;142.766;2023-11-21T00:58:56;17.33;;;2.72;;
63699;SDS011;49845;47.130;142.766;2023-11-21T01:01:28;9.77;;;2.65;;
63699;SDS011;49845;47.130;142.766;2023-11-21T01:03:58;9.70;;;2.70;;
63699;SDS011;49845;47.130;142.766;2023-11-21T01:06:30;11.88;;;2.80;;
63699;SDS011;49845;47.130;142.766;2023-11-21T01:09:00;8.40;;;2.78;;
63699;SDS011;49845;47.130;142.766;2023-11-21T01:11:36;10.23;;;2.60;;
63699;SDS011;49845;47.130;142.766;2023-11-21T01:14:06;7.15;;;2.42;;
63699;SDS011;49845;47.130;142.766;2023-11-21T01:16:39;12.88;;;3.38;;
63699;SDS011;49845;47.130;142.766;2023-11-21T01:19:10;12.73;;;2.65;;
63699;SDS011;49845;47.130;142.766;2023-11-21T01:21:40;9.52;;;2.58;;
63699;SDS011;49845;47.130;142.766;2023-11-21T01:24:11;11.35;;;1.95;;
63699;SDS011;49845;47.130;142.766;2023-11-21T01:26:42;11.27;;;2.45;;
63699;SDS011;49845;47.130;142.766;2023-11-21T01:29:14;9.52;;;2.80;;
63699;SDS011;49845;47.130;142.766;2023-11-21T01:31:46;11.63;;;2.35;;
63699;SDS011;49845;47.130;142.766;2023-11-21T01:34:16;13.32;;;2.40;;
63699;SDS011;49845;47.130;142.766;2023-11-21T01:36:47;11.68;;;2.10;;
63699;SDS011;49845;47.130;142.766;2023-11-21T01:39:17;10.65;;;2.08;;
63699;SDS011;49845;47.130;142.766;2023-11-21T01:41:51;13.48;;;2.47;;
63699;SDS011;49845;47.130;142.766;2023-11-21T01:44:21;11.25;;;1.80;;
63699;SDS011;49845;47.130;142.766;2023-11-21T01:46:53;9.93;;;2.42;;
63699;SDS011;49845;47.130;142.766;2023-11-21T01:49:25;10.27;;;2.10;;
63699;SDS011;49845;47.130;142.766;2023-11-21T01:51:56;10.95;;;2.70;;
63699;SDS011;49845;47.130;142.766;2023-11-21T01:54:26;10.27;;;2.20;;
63699;SDS011;49845;47.130;142.766;2023-11-21T01:56:58;10.98;;;3.20;;
63699;SDS011;49845;47.130;142.766;2023-11-21T01:59:32;12.95;;;3.22;;
63699;SDS011;49845;47.130;142.766;2023-11-21T02:02:06;13.32;;;2.50;;
63699;SDS011;49845;47.130;142.766;2023-11-21T02:04:37;19.35;;;2.70;;
63699;SDS011;49845;47.130;142.766;2023-11-21T02:07:08;8.93;;;2.10;;
63699;SDS011;49845;47.130;142.766;2023-11-21T02:09:39;9.32;;;2.22;;
63699;SDS011;49845;47.130;142.766;2023-11-21T02:12:10;8.68;;;2.40;;
63699;SDS011;49845;47.130;142.766;2023-11-21T02:14:41;12.40;;;2.78;;
63699;SDS011;49845;47.130;142.766;2023-11-21T02:17:14;11.75;;;2.78;;
63699;SDS011;49845;47.130;142.766;2023-11-21T02:19:45;11.40;;;2.65;;
63699;SDS011;49845;47.130;142.766;2023-11-21T02:22:18;14.20;;;3.00;;
63699;SDS011;49845;47.130;142.766;2023-11-21T02:24:51;13.77;;;2.22;;
63699;SDS011;49845;47.130;142.766;2023-11-21T02:27:23;16.80;;;2.92;;
63699;SDS011;49845;47.130;142.766;2023-11-21T02:29:55;10.85;;;2.40;;
63699;SDS011;49845;47.130;142.766;2023-11-21T02:32:26;9.13;;;2.72;;
63699;SDS011;49845;47.130;142.766;2023-11-21T02:34:59;16.13;;;2.58;;
63699;SDS011;49845;47.130;142.766;2023-11-21T02:37:30;11.23;;;3.10;;
63699;SDS011;49845;47.130;142.766;2023-11-21T02:40:02;16.20;;;3.05;;
63699;SDS011;49845;47.130;142.766;2023-11-21T02:42:33;15.10;;;3.10;;
63699;SDS011;49845;47.130;142.766;2023-11-21T02:45:04;13.90;;;3.58;;
63699;SDS011;49845;47.130;142.766;2023-11-21T02:47:36;13.93;;;3.58;;
63699;SDS011;49845;47.130;142.766;2023-11-21T02:50:06;18.02;;;3.85;;
63699;SDS011;49845;47.130;142.766;2023-11-21T02:52:37;16.65;;;2.90;;
63699;SDS011;49845;47.130;142.766;2023-11-21T02:55:10;11.57;;;3.15;;
63699;SDS011;49845;47.130;142.766;2023-11-21T02:57:41;12.40;;;3.38;;
63699;SDS011;49845;47.130;142.766;2023-11-21T03:00:11;15.00;;;2.83;;
63699;SDS011;49845;47.130;142.766;2023-11-21T03:02:42;12.68;;;3.67;;
63699;SDS011;49845;47.130;142.766;2023-11-21T03:05:15;12.68;;;3.63;;
63699;SDS011;49845;47.130;142.766;2023-11-21T03:07:47;13.82;;;3.13;;
63699;SDS011;49845;47.130;142.766;2023-11-21T03:10:19;23.80;;;3.63;;
63699;SDS011;49845;47.130;142.766;2023-11-21T03:12:49;14.20;;;2.90;;
63699;SDS011;49845;47.130;142.766;2023-11-21T03:15:20;14.30;;;3.67;;
63699;SDS011;49845;47.130;142.766;2023-11-21T03:17:50;13.40;;;3.45;;
63699;SDS011;49845;47.130;142.766;2023-11-21T03:20:21;13.38;;;3.20;;
63699;SDS011;49845;47.130;142.766;2023-11-21T03:22:51;16.60;;;3.03;;
63699;SDS011;49845;47.130;142.766;2023-11-21T03:25:23;21.38;;;4.60;;
63699;SDS011;49845;47.130;142.766;2023-11-21T03:27:54;19.38;;;3.42;;
63699;SDS011;49845;47.130;142.766;2023-11-21T03:30:24;18.75;;;3.42;;
63699;SDS011;49845;47.130;142.766;2023-11-21T03:32:54;19.45;;;4.68;;
63699;SDS011;49845;47.130;142.766;2023-11-21T03:35:25;16.45;;;3.30;;
63699;SDS011;49845;47.130;142.766;2023-11-21T03:37:55;20.15;;;3.45;;
63699;SDS011;49845;47.130;142.766;2023-11-21T03:40:27;20.30;;;3.75;;
63699;SDS011;49845;47.130;142.766;2023-11-21T03:42:58;15.88;;;3.42;;
63699;SDS011;49845;47.130;142.766;2023-11-21T03:45:29;13.93;;;3.65;;
63699;SDS011;49845;47.130;142.766;2023-11-21T03:47:59;15.55;;;3.58;;
63699;SDS011;49845;47.130;142.766;2023-11-21T03:50:30;17.90;;;3.78;;
63699;SDS011;49845;47.130;142.766;2023-11-21T03:53:01;10.32;;;3.08;;
63699;SDS011;49845;47.130;142.766;2023-11-21T03:55:33;9.90;;;3.22;;
63699;SDS011;49845;47.130;142.766;2023-11-21T03:58:03;14.07;;;4.22;;
63699;SDS011;49845;47.130;142.766;2023-11-21T04:00:33;12.23;;;3.63;;
63699;SDS011;49845;47.130;142.766;2023-11-21T04:03:04;12.50;;;3.63;;
63699;SDS011;49845;47.130;142.766;2023-11-21T04:05:34;15.00;;;4.05;;
63699;SDS011;49845;47.130;142.766;2023-11-21T04:08:05;14.07;;;2.97;;
63699;SDS011;49845;47.130;142.766;2023-11-21T04:10:37;21.60;;;3.38;;
63699;SDS011;49845;47.130;142.766;2023-11-21T04:13:08;10.98;;;3.00;;
63699;SDS011;49845;47.130;142.766;2023-11-21T04:15:38;14.25;;;3.22;;
63699;SDS011;49845;47.130;142.766;2023-11-21T04:18:08;11.05;;;2.63;;
63699;SDS011;49845;47.130;142.766;2023-11-21T04:20:39;17.38;;;3.60;;
63699;SDS011;49845;47.130;142.766;2023-11-21T04:23:10;12.05;;;3.33;;
63699;SDS011;49845;47.130;142.766;2023-11-21T04:25:42;13.70;;;3.30;;
63699;SDS011;49845;47.130;142.766;2023-11-21T04:28:13;15.85;;;3.58;;
63699;SDS011;49845;47.130;142.766;2023-11-21T04:30:43;13.75;;;3.40;;
63699;SDS011;49845;47.130;142.766;2023-11-21T04:33:14;16.05;;;4.15;;
63699;SDS011;49845;47.130;142.766;2023-11-21T04:35:44;17.88;;;4.25;;
63699;SDS011;49845;47.130;142.766;2023-11-21T04:38:15;22.50;;;4.00;;
63699;SDS011;49845;47.130;142.766;2023-11-21T04:40:48;15.75;;;3.67;;
63699;SDS011;49845;47.130;142.766;2023-11-21T04:43:18;11.50;;;3.90;;
63699;SDS011;49845;47.130;142.766;2023-11-21T04:45:49;13.80;;;3.70;;
63699;SDS011;49845;47.130;142.766;2023-11-21T04:48:19;17.13;;;4.13;;
63699;SDS011;49845;47.130;142.766;2023-11-21T04:50:50;15.52;;;4.28;;
63699;SDS011;49845;47.130;142.766;2023-11-21T04:53:20;17.70;;;4.68;;
63699;SDS011;49845;47.130;142.766;2023-11-21T04:55:52;19.48;;;4.10;;
63699;SDS011;49845;47.130;142.766;2023-11-21T04:58:25;11.65;;;3.53;;
63699;SDS011;49845;47.130;142.766;2023-11-21T05:00:55;15.13;;;3.55;;
63699;SDS011;49845;47.130;142.766;2023-11-21T05:03:26;11.77;;;3.28;;
63699;SDS011;49845;47.130;142.766;2023-11-21T05:05:57;20.27;;;3.85;;
63699;SDS011;49845;47.130;142.766;2023-11-21T05:08:29;15.63;;;3.13;;
63699;SDS011;49845;47.130;142.766;2023-11-21T05:11:00;18.10;;;4.28;;
63699;SDS011;49845;47.130;142.766;2023-11-21T05:13:30;16.95;;;4.22;;
63699;SDS011;49845;47.130;142.766;2023-11-21T05:16:03;16.75;;;3.67;;
63699;SDS011;49845;47.130;142.766;2023-11-21T05:18:34;10.88;;;2.95;;
63699;SDS011;49845;47.130;142.766;2023-11-21T05:21:05;20.10;;;3.72;;
63699;SDS011;49845;47.130;142.766;2023-11-21T05:23:36;14.13;;;3.63;;
63699;SDS011;49845;47.130;142.766;2023-11-21T05:26:08;16.05;;;3.60;;
63699;SDS011;49845;47.130;142.766;2023-11-21T05:28:38;11.85;;;4.50;;
63699;SDS011;49845;47.130;142.766;2023-11-21T05:31:09;21.67;;;4.97;;
63699;SDS011;49845;47.130;142.766;2023-11-21T05:33:43;14.88;;;3.85;;
63699;SDS011;49845;47.130;142.766;2023-11-21T05:36:13;11.68;;;3.60;;
63699;SDS011;49845;47.130;142.766;2023-11-21T05:38:44;11.38;;;3.90;;
63699;SDS011;49845;47.130;142.766;2023-11-21T05:41:16;16.23;;;3.78;;
63699;SDS011;49845;47.130;142.766;2023-11-21T05:43:47;14.93;;;4.55;;
63699;SDS011;49845;47.130;142.766;2023-11-21T05:46:17;15.43;;;3.45;;
63699;SDS011;49845;47.130;142.766;2023-11-21T05:48:47;17.45;;;4.50;;
63699;SDS011;49845;47.130;142.766;2023-11-21T05:51:18;18.98;;;3.95;;
63699;SDS011;49845;47.130;142.766;2023-11-21T05:53:48;18.23;;;4.30;;
63699;SDS011;49845;47.130;142.766;2023-11-21T05:56:20;16.83;;;4.30;;
63699;SDS011;49845;47.130;142.766;2023-11-21T05:58:51;14.55;;;4.72;;
63699;SDS011;49845;47.130;142.766;2023-11-21T06:01:21;13.90;;;4.10;;
63699;SDS011;49845;47.130;142.766;2023-11-21T06:03:52;9.90;;;4.00;;
63699;SDS011;49845;47.130;142.766;2023-11-21T06:06:22;14.07;;;3.35;;
63699;SDS011;49845;47.130;142.766;2023-11-21T06:08:53;12.52;;;3.63;;
63699;SDS011;49845;47.130;142.766;2023-11-21T06:11:26;17.23;;;3.97;;
63699;SDS011;49845;47.130;142.766;2023-11-21T06:13:56;17.35;;;4.15;;
63699;SDS011;49845;47.130;142.766;2023-11-21T06:16:27;19.27;;;3.42;;
63699;SDS011;49845;47.130;142.766;2023-11-21T06:18:58;19.35;;;4.30;;
63699;SDS011;49845;47.130;142.766;2023-11-21T06:21:28;11.80;;;3.40;;
63699;SDS011;49845;47.130;142.766;2023-11-21T06:23:59;15.07;;;4.10;;
63699;SDS011;49845;47.130;142.766;2023-11-21T06:26:31;19.45;;;3.95;;
63699;SDS011;49845;47.130;142.766;2023-11-21T06:29:02;14.90;;;4.25;;
63699;SDS011;49845;47.130;142.766;2023-11-21T06:31:32;17.02;;;3.17;;
63699;SDS011;49845;47.130;142.766;2023-11-21T06:34:03;14.25;;;3.40;;
63699;SDS011;49845;47.130;142.766;2023-11-21T06:36:33;19.17;;;4.78;;
63699;SDS011;49845;47.130;142.766;2023-11-21T06:39:04;14.50;;;3.80;;
63699;SDS011;49845;47.130;142.766;2023-11-21T06:41:37;16.73;;;3.72;;
63699;SDS011;49845;47.130;142.766;2023-11-21T06:44:08;17.10;;;4.22;;
63699;SDS011;49845;47.130;142.766;2023-11-21T06:46:38;19.80;;;5.03;;
63699;SDS011;49845;47.130;142.766;2023-11-21T06:49:10;14.88;;;3.85;;
63699;SDS011;49845;47.130;142.766;2023-11-21T06:51:40;36.13;;;5.13;;
63699;SDS011;49845;47.130;142.766;2023-11-21T06:54:11;15.00;;;4.40;;
63699;SDS011;49845;47.130;142.766;2023-11-21T06:56:43;18.50;;;4.30;;
63699;SDS011;49845;47.130;142.766;2023-11-21T06:59:14;15.07;;;4.13;;
63699;SDS011;49845;47.130;142.766;2023-11-21T07:01:44;17.52;;;3.85;;
63699;SDS011;49845;47.130;142.766;2023-11-21T07:04:15;15.95;;;3.78;;
63699;SDS011;49845;47.130;142.766;2023-11-21T07:06:46;14.38;;;4.07;;
63699;SDS011;49845;47.130;142.766;2023-11-21T07:09:16;16.10;;;3.47;;
63699;SDS011;49845;47.130;142.766;2023-11-21T07:11:51;24.00;;;4.93;;
63699;SDS011;49845;47.130;142.766;2023-11-21T07:14:22;23.17;;;4.72;;
63699;SDS011;49845;47.130;142.766;2023-11-21T07:16:52;20.20;;;4.28;;
63699;SDS011;49845;47.130;142.766;2023-11-21T07:19:23;20.17;;;4.50;;
63699;SDS011;49845;47.130;142.766;2023-11-21T07:21:53;17.17;;;3.90;;
63699;SDS011;49845;47.130;142.766;2023-11-21T07:24:24;13.52;;;3.95;;
63699;SDS011;49845;47.130;142.766;2023-11-21T07:26:56;16.02;;;4.22;;
63699;SDS011;49845;47.130;142.766;2023-11-21T07:29:26;15.23;;;4.57;;
63699;SDS011;49845;47.130;142.766;2023-11-21T07:31:57;16.05;;;4.80;;
63699;SDS011;49845;47.130;142.766;2023-11-21T07:34:28;14.60;;;4.25;;
63699;SDS011;49845;47.130;142.766;2023-11-21T07:36:58;12.65;;;3.47;;
63699;SDS011;49845;47.130;142.766;2023-11-21T07:39:29;13.32;;;3.38;;
63699;SDS011;49845;47.130;142.766;2023-11-21T07:42:01;16.88;;;3.58;;
63699;SDS011;49845;47.130;142.766;2023-11-21T07:44:32;21.40;;;4.22;;
63699;SDS011;49845;47.130;142.766;2023-11-21T07:47:02;18.23;;;4.72;;
63699;SDS011;49845;47.130;142.766;2023-11-21T07:49:33;16.75;;;4.85;;
63699;SDS011;49845;47.130;142.766;2023-11-21T07:52:04;14.68;;;4.63;;
63699;SDS011;49845;47.130;142.766;2023-11-21T07:54:34;13.95;;;4.00;;
63699;SDS011;49845;47.130;142.766;2023-11-21T07:57:06;11.55;;;3.88;;
63699;SDS011;49845;47.130;142.766;2023-11-21T07:59:39;21.67;;;5.55;;
63699;SDS011;49845;47.130;142.766;2023-11-21T08:02:09;30.60;;;4.88;;
63699;SDS011;49845;47.130;142.766;2023-11-21T08:04:40;15.45;;;4.57;;
63699;SDS011;49845;47.130;142.766;2023-11-21T08:07:10;17.83;;;4.97;;
63699;SDS011;49845;47.130;142.766;2023-11-21T08:09:41;18.65;;;4.57;;
63699;SDS011;49845;47.130;142.766;2023-11-21T08:12:13;18.25;;;3.95;;
63699;SDS011;49845;47.130;142.766;2023-11-21T08:14:45;27.55;;;5.20;;
63699;SDS011;49845;47.130;142.766;2023-11-21T08:17:15;40.90;;;5.50;;
63699;SDS011;49845;47.130;142.766;2023-11-21T08:19:47;29.55;;;5.60;;
63699;SDS011;49845;47.130;142.766;2023-11-21T08:22:19;16.25;;;4.72;;
63699;SDS011;49845;47.130;142.766;2023-11-21T08:24:50;19.08;;;5.28;;
63699;SDS011;49845;47.130;142.766;2023-11-21T08:27:22;16.08;;;5.60;;
63699;SDS011;49845;47.130;142.766;2023-11-21T08:29:52;16.15;;;5.13;;
63699;SDS011;49845;47.130;142.766;2023-11-21T08:32:23;14.32;;;4.47;;
63699;SDS011;49845;47.130;142.766;2023-11-21T08:34:54;21.60;;;4.95;;
63699;SDS011;49845;47.130;142.766;2023-11-21T08:37:24;16.20;;;4.68;;
63699;SDS011;49845;47.130;142.766;2023-11-21T08:39:58;14.48;;;4.32;;
63699;SDS011;49845;47.130;142.766;2023-11-21T08:42:31;20.35;;;4.70;;
63699;SDS011;49845;47.130;142.766;2023-11-21T08:45:01;31.45;;;4.82;;
63699;SDS011;49845;47.130;142.766;2023-11-21T08:47:32;13.50;;;4.38;;
63699;SDS011;49845;47.130;142.766;2023-11-21T08:50:04;15.30;;;4.57;;
63699;SDS011;49845;47.130;142.766;2023-11-21T08:52:35;21.05;;;4.50;;
63699;SDS011;49845;47.130;142.766;2023-11-21T08:55:06;12.95;;;4.78;;
63699;SDS011;49845;47.130;142.766;2023-11-21T08:57:43;18.13;;;4.85;;
63699;SDS011;49845;47.130;142.766;2023-11-21T09:00:14;19.98;;;4.97;;
63699;SDS011;49845;47.130;142.766;2023-11-21T09:02:45;12.20;;;4.57;;
63699;SDS011;49845;47.130;142.766;2023-11-21T09:05:16;15.93;;;4.82;;
63699;SDS011;49845;47.130;142.766;2023-11-21T09:07:48;21.45;;;5.72;;
63699;SDS011;49845;47.130;142.766;2023-11-21T09:10:19;20.27;;;5.25;;
63699;SDS011;49845;47.130;142.766;2023-11-21T09:12:52;18.58;;;4.82;;
63699;SDS011;49845;47.130;142.766;2023-11-21T09:15:23;17.50;;;5.38;;
63699;SDS011;49845;47.130;142.766;2023-11-21T09:17:53;17.95;;;5.20;;
63699;SDS011;49845;47.130;142.766;2023-11-21T09:20:24;16.63;;;5.40;;
63699;SDS011;49845;47.130;142.766;2023-11-21T09:22:54;12.05;;;5.10;;
63699;SDS011;49845;47.130;142.766;2023-11-21T09:25:25;12.38;;;5.45;;
63699;SDS011;49845;47.130;142.766;2023-11-21T09:27:58;18.73;;;5.90;;
63699;SDS011;49845;47.130;142.766;2023-11-21T09:30:28;20.02;;;6.75;;
63699;SDS011;49845;47.130;142.766;2023-11-21T09:32:58;19.73;;;6.95;;
63699;SDS011;49845;47.130;142.766;2023-11-21T09:35:29;21.88;;;6.82;;
63699;SDS011;49845;47.130;142.766;2023-11-21T09:37:59;22.83;;;7.20;;
63699;SDS011;49845;47.130;142.766;2023-11-21T09:40:33;16.52;;;5.70;;
63699;SDS011;49845;47.130;142.766;2023-11-21T09:43:08;13.52;;;5.03;;
63699;SDS011;49845;47.130;142.766;2023-11-21T09:45:45;22.88;;;5.97;;
63699;SDS011;49845;47.130;142.766;2023-11-21T09:48:18;20.33;;;5.60;;
63699;SDS011;49845;47.130;142.766;2023-11-21T09:50:50;12.55;;;4.60;;
63699;SDS011;49845;47.130;142.766;2023-11-21T09:53:23;16.65;;;5.50;;
63699;SDS011;49845;47.130;142.766;2023-11-21T09:55:57;16.40;;;5.60;;
63699;SDS011;49845;47.130;142.766;2023-11-21T09:58:31;23.77;;;7.63;;
63699;SDS011;49845;47.130;142.766;2023-11-21T10:01:02;17.85;;;6.72;;
63699;SDS011;49845;47.130;142.766;2023-11-21T10:03:35;20.52;;;7.85;;
63699;SDS011;49845;47.130;142.766;2023-11-21T10:06:06;23.48;;;7.28;;
63699;SDS011;49845;47.130;142.766;2023-11-21T10:08:38;18.42;;;5.80;;
63699;SDS011;49845;47.130;142.766;2023-11-21T10:11:21;22.92;;;6.15;;
63699;SDS011;49845;47.130;142.766;2023-11-21T10:13:56;16.67;;;5.50;;
63699;SDS011;49845;47.130;142.766;2023-11-21T10:16:29;11.20;;;5.13;;
63699;SDS011;49845;47.130;142.766;2023-11-21T10:19:01;22.05;;;5.30;;
63699;SDS011;49845;47.130;142.766;2023-11-21T10:21:37;17.35;;;5.57;;
63699;SDS011;49845;47.130;142.766;2023-11-21T10:24:08;12.90;;;4.70;;
63699;SDS011;49845;47.130;142.766;2023-11-21T10:26:40;19.70;;;5.78;;
63699;SDS011;49845;47.130;142.766;2023-11-21T10:29:21;16.63;;;4.90;;
63699;SDS011;49845;47.130;142.766;2023-11-21T10:31:51;14.50;;;5.35;;
63699;SDS011;49845;47.130;142.766;2023-11-21T10:34:25;17.65;;;5.60;;
63699;SDS011;49845;47.130;142.766;2023-11-21T10:36:56;13.52;;;5.03;;
63699;SDS011;49845;47.130;142.766;2023-11-21T10:39:26;25.23;;;6.57;;
63699;SDS011;49845;47.130;142.766;2023-11-21T10:41:58;15.75;;;5.40;;
63699;SDS011;49845;47.130;142.766;2023-11-21T10:44:31;17.80;;;6.13;;
63699;SDS011;49845;47.130;142.766;2023-11-21T10:47:02;20.70;;;6.57;;
63699;SDS011;49845;47.130;142.766;2023-11-21T10:49:33;11.98;;;5.75;;
63699;SDS011;49845;47.130;142.766;2023-11-21T10:52:03;16.67;;;6.63;;
63699;SDS011;49845;47.130;142.766;2023-11-21T10:54:34;22.05;;;7.88;;
63699;SDS011;49845;47.130;142.766;2023-11-21T10:57:05;28.95;;;10.48;;
63699;SDS011;49845;47.130;142.766;2023-11-21T10:59:37;19.60;;;6.68;;
63699;SDS011;49845;47.130;142.766;2023-11-21T11:02:11;17.20;;;5.38;;
63699;SDS011;49845;47.130;142.766;2023-11-21T11:04:49;20.02;;;6.35;;
63699;SDS011;49845;47.130;142.766;2023-11-21T11:07:21;16.48;;;5.60;;
63699;SDS011;49845;47.130;142.766;2023-11-21T11:09:55;14.73;;;5.40;;
63699;SDS011;49845;47.130;142.766;2023-11-21T11:12:27;14.90;;;5.50;;
63699;SDS011;49845;47.130;142.766;2023-11-21T11:15:00;12.95;;;5.18;;
63699;SDS011;49845;47.130;142.766;2023-11-21T11:17:32;13.90;;;4.95;;
63699;SDS011;49845;47.130;142.766;2023-11-21T11:20:03;21.98;;;5.55;;
63699;SDS011;49845;47.130;142.766;2023-11-21T11:22:40;16.75;;;5.18;;
63699;SDS011;49845;47.130;142.766;2023-11-21T11:25:24;12.07;;;5.18;;
63699;SDS011;49845;47.130;142.766;2023-11-21T11:28:03;20.67;;;6.47;;
63699;SDS011;49845;47.130;142.766;2023-11-21T11:30:41;15.85;;;6.00;;
63699;SDS011;49845;47.130;142.766;2023-11-21T11:33:21;16.40;;;6.07;;
63699;SDS011;49845;47.130;142.766;2023-11-21T11:36:04;14.23;;;6.85;;
63699;SDS011;49845;47.130;142.766;2023-11-21T11:38:38;13.73;;;6.25;;
63699;SDS011;49845;47.130;142.766;2023-11-21T11:41:15;14.55;;;5.78;;
63699;SDS011;49845;47.130;142.766;2023-11-21T11:43:57;15.80;;;5.85;;
63699;SDS011;49845;47.130;142.766;2023-11-21T11:46:42;15.15;;;5.47;;
63699;SDS011;49845;47.130;142.766;2023-11-21T11:49:23;21.20;;;6.43;;
63699;SDS011;49845;47.130;142.766;2023-11-21T11:54:57;15.05;;;5.85;;
63699;SDS011;49845;47.130;142.766;2023-11-21T11:57:30;15.27;;;5.72;;
63699;SDS011;49845;47.130;142.766;2023-11-21T12:00:07;11.18;;;5.50;;
63699;SDS011;49845;47.130;142.766;2023-11-21T12:02:42;16.08;;;6.03;;
63699;SDS011;49845;47.130;142.766;2023-11-21T12:05:15;14.98;;;5.63;;
63699;SDS011;49845;47.130;142.766;2023-11-21T12:07:48;27.80;;;7.38;;
63699;SDS011;49845;47.130;142.766;2023-11-21T12:10:23;17.77;;;6.20;;
63699;SDS011;49845;47.130;142.766;2023-11-21T12:12:55;17.40;;;5.53;;
63699;SDS011;49845;47.130;142.766;2023-11-21T12:15:27;12.98;;;5.40;;
63699;SDS011;49845;47.130;142.766;2023-11-21T12:18:00;16.42;;;5.93;;
63699;SDS011;49845;47.130;142.766;2023-11-21T12:20:31;17.25;;;7.18;;
63699;SDS011;49845;47.130;142.766;2023-11-21T12:23:06;17.77;;;5.65;;
63699;SDS011;49845;47.130;142.766;2023-11-21T12:25:38;13.80;;;4.90;;
63699;SDS011;49845;47.130;142.766;2023-11-21T12:28:09;16.50;;;4.88;;
63699;SDS011;49845;47.130;142.766;2023-11-21T12:30:40;13.13;;;4.57;;
63699;SDS011;49845;47.130;142.766;2023-11-21T12:33:13;14.18;;;5.20;;
63699;SDS011;49845;47.130;142.766;2023-11-21T12:35:45;15.82;;;5.15;;
63699;SDS011;49845;47.130;142.766;2023-11-21T12:38:16;20.10;;;5.53;;
63699;SDS011;49845;47.130;142.766;2023-11-21T12:40:47;14.02;;;5.53;;
63699;SDS011;49845;47.130;142.766;2023-11-21T12:43:17;13.70;;;5.25;;
63699;SDS011;49845;47.130;142.766;2023-11-21T12:45:49;28.83;;;9.98;;
63699;SDS011;49845;47.130;142.766;2023-11-21T12:48:22;29.23;;;16.90;;
63699;SDS011;49845;47.130;142.766;2023-11-21T12:50:53;59.10;;;29.10;;
63699;SDS011;49845;47.130;142.766;2023-11-21T12:53:27;49.58;;;22.73;;
63699;SDS011;49845;47.130;142.766;2023-11-21T12:56:06;57.40;;;20.38;;
63699;SDS011;49845;47.130;142.766;2023-11-21T12:58:38;70.25;;;27.00;;
63699;SDS011;49845;47.130;142.766;2023-11-21T13:01:09;31.08;;;13.55;;
63699;SDS011;49845;47.130;142.766;2023-11-21T13:03:48;22.15;;;7.50;;
63699;SDS011;49845;47.130;142.766;2023-11-21T13:06:19;25.65;;;11.32;;
63699;SDS011;49845;47.130;142.766;2023-11-21T13:08:53;45.10;;;20.73;;
63699;SDS011;49845;47.130;142.766;2023-11-21T13:11:25;30.17;;;14.43;;
63699;SDS011;49845;47.130;142.766;2023-11-21T13:13:59;42.05;;;21.42;;
63699;SDS011;49845;47.130;142.766;2023-11-21T13:16:29;32.33;;;11.98;;
63699;SDS011;49845;47.130;142.766;2023-11-21T13:19:02;19.20;;;9.90;;
63699;SDS011;49845;47.130;142.766;2023-11-21T13:21:33;14.63;;;8.30;;
63699;SDS011;49845;47.130;142.766;2023-11-21T13:24:03;22.85;;;11.60;;
63699;SDS011;49845;47.130;142.766;2023-11-21T13:26:34;21.67;;;9.43;;
63699;SDS011;49845;47.130;142.766;2023-11-21T13:29:05;50.88;;;25.88;;
63699;SDS011;49845;47.130;142.766;2023-11-21T13:31:36;37.03;;;18.65;;
63699;SDS011;49845;47.130;142.766;2023-11-21T13:34:08;27.15;;;14.07;;
63699;SDS011;49845;47.130;142.766;2023-11-21T13:36:49;21.90;;;11.55;;
63699;SDS011;49845;47.130;142.766;2023-11-21T13:39:26;28.77;;;13.38;;
63699;SDS011;49845;47.130;142.766;2023-11-21T13:41:56;36.15;;;14.35;;
63699;SDS011;49845;47.130;142.766;2023-11-21T13:44:27;21.65;;;8.57;;
63699;SDS011;49845;47.130;142.766;2023-11-21T13:47:05;31.50;;;12.43;;
63699;SDS011;49845;47.130;142.766;2023-11-21T13:49:37;16.75;;;8.60;;
63699;SDS011;49845;47.130;142.766;2023-11-21T13:52:09;33.08;;;14.27;;
63699;SDS011;49845;47.130;142.766;2023-11-21T13:54:43;36.10;;;15.85;;
63699;SDS011;49845;47.130;142.766;2023-11-21T13:57:14;37.28;;;18.80;;
63699;SDS011;49845;47.130;142.766;2023-11-21T13:59:45;50.10;;;26.52;;
63699;SDS011;49845;47.130;142.766;2023-11-21T14:02:16;35.28;;;17.77;;
63699;SDS011;49845;47.130;142.766;2023-11-21T14:04:50;38.05;;;18.15;;
63699;SDS011;49845;47.130;142.766;2023-11-21T14:07:23;31.77;;;14.68;;
63699;SDS011;49845;47.130;142.766;2023-11-21T14:10:03;29.92;;;14.57;;
63699;SDS011;49845;47.130;142.766;2023-11-21T14:12:41;26.95;;;14.48;;
63699;SDS011;49845;47.130;142.766;2023-11-21T14:15:13;19.35;;;11.07;;
63699;SDS011;49845;47.130;142.766;2023-11-21T14:17:46;19.02;;;10.07;;
63699;SDS011;49845;47.130;142.766;2023-11-21T14:20:19;16.13;;;9.43;;
63699;SDS011;49845;47.130;142.766;2023-11-21T14:22:50;19.98;;;10.45;;
63699;SDS011;49845;47.130;142.766;2023-11-21T14:25:20;17.40;;;10.05;;
63699;SDS011;49845;47.130;142.766;2023-11-21T14:27:51;14.40;;;9.02;;
63699;SDS011;49845;47.130;142.766;2023-11-21T14:30:21;26.85;;;11.32;;
63699;SDS011;49845;47.130;142.766;2023-11-21T14:32:52;18.83;;;9.60;;
63699;SDS011;49845;47.130;142.766;2023-11-21T14:35:24;20.60;;;8.73;;
63699;SDS011;49845;47.130;142.766;2023-11-21T14:37:58;17.50;;;8.65;;